Главная страница
METAR-TAF:

METAR-TAF

Аэропорты :

Sindal, Дания

широта: 57-30N, долгота: 010-13E, высота над уровнем моря: 28 м

Текущие метеонаблюдения

Эта сводка был подготовлена 6 часа и 40 минут назад, в 11:50 UTC
Ветер 9 Узел от южный
Температура 11°C
Влажность 94%
Давление 1027 hPa
Видимость 10 км и более
небольшая облачность на высоте 1600 фута
Рассеянная облачность на высоте 5500 фута

METAR: EKSN 151150Z 18009KT 9999 FEW016 BKN055 11/10 Q1027

Время: 19:30 (18:30 UTC)

Прогноз

Эта сводка был подготовлена 9 часа и 35 минут назад, в 08:55 UTC
Прогноз действительный с 15-го 09 UTC до 15-го 15 UTC
Ветер 10 Узел от южный-юго-западный
Видимость: 8000 м
Отдельные облака на высоте 3000 фута
временами
С 15-го 09 UTC до 15-го 15 UTC
Видимость: 4000 м
Рассеянная облачность на высоте 800 фута
дымка

TAF: EKSN 150855Z 1509/1515 20010KT 8000 SCT030 TEMPO 1509/1515 4000 BR BKN008

Метеонаблюдения и прогнозы для более 4000 аэропортов (сводки METAR и TAF).

Имеющиеся станции представлены на карте желтыми и красными точками.

Чтобы увидеть название станции, наведите на нее мышь.

Затем щелкните, чтобы увидеть метеонаблюдения и метеопрогнозы.

Управление картой: чтобы увеличить масштаб, щелкните зеленые кнопки с черным крестиком; чтобы уменьшить масштаб, щелкните зеленую кнопку с тире; для просмотра соседних карт щелкайте зеленые стрелки.


METAR-TAF: